createdAt,value
2022-12-16T00:00:09.173Z,95479.81
2022-12-16T00:03:06.437Z,95482.28
2022-12-16T00:06:04.556Z,95476.25
2022-12-16T00:09:02.016Z,95480.91
2022-12-16T00:11:58.819Z,95472.50
2022-12-16T00:14:55.926Z,95479.00
2022-12-16T00:17:52.749Z,95475.25
2022-12-16T00:20:54.856Z,95473.22
2022-12-16T00:23:51.760Z,95470.88
2022-12-16T00:26:48.793Z,95466.09
2022-12-16T00:29:45.617Z,95465.41
2022-12-16T00:32:42.947Z,95470.13
2022-12-16T00:35:44.520Z,95469.34
2022-12-16T00:38:42.875Z,95477.66
2022-12-16T00:41:39.794Z,95474.47
2022-12-16T00:44:36.707Z,95473.22
2022-12-16T00:47:33.662Z,95462.00
2022-12-16T00:50:30.539Z,95465.41
2022-12-16T00:53:27.905Z,95463.09
2022-12-16T00:56:25.140Z,95464.13
2022-12-16T00:59:21.996Z,95451.38
2022-12-16T01:02:19.035Z,95459.94
2022-12-16T01:05:20.812Z,95466.75
2022-12-16T01:08:17.665Z,95464.13
2022-12-16T01:11:17.056Z,95471.66
2022-12-16T01:14:14.026Z,95471.66
2022-12-16T01:17:10.856Z,95471.19
2022-12-16T01:20:09.020Z,95475.84
2022-12-16T01:23:06.123Z,95467.63
2022-12-16T01:26:03.413Z,95468.56
2022-12-16T01:29:00.273Z,95474.56
2022-12-16T01:31:57.226Z,95465.16
2022-12-16T01:34:55.842Z,95465.06
2022-12-16T01:37:52.823Z,95483.59
2022-12-16T01:40:51.751Z,95474.88
2022-12-16T01:43:48.831Z,95472.03
2022-12-16T01:47:05.457Z,95483.81
2022-12-16T01:50:10.560Z,95480.19
2022-12-16T01:53:07.617Z,95484.84
2022-12-16T01:56:04.715Z,95487.22
2022-12-16T01:59:03.269Z,95479.88
2022-12-16T02:02:00.662Z,95488.50
2022-12-16T02:05:16.692Z,95474.06
2022-12-16T02:08:17.086Z,95481.91
2022-12-16T02:11:30.861Z,95485.53
2022-12-16T02:14:50.491Z,95479.88
2022-12-16T02:18:09.354Z,95479.28
2022-12-16T02:21:25.026Z,95484.31
2022-12-16T02:24:40.143Z,95487.13
2022-12-16T02:27:52.350Z,95484.50
2022-12-16T02:30:57.448Z,95478.72
2022-12-16T02:34:38.392Z,95481.81
2022-12-16T02:38:06.632Z,95485.22
2022-12-16T02:41:09.274Z,95483.88
2022-12-16T02:44:09.651Z,95481.81
2022-12-16T02:47:06.403Z,95486.94
2022-12-16T02:50:03.486Z,95488.75
2022-12-16T02:53:02.365Z,95488.75
2022-12-16T02:56:30.202Z,95483.78
2022-12-16T02:59:43.950Z,95476.41
2022-12-16T03:03:05.751Z,95478.56
2022-12-16T03:06:04.810Z,95487.19
2022-12-16T03:09:06.908Z,95485.03
2022-12-16T03:12:10.929Z,95482.44
2022-12-16T03:15:10.236Z,95495.97
2022-12-16T03:18:10.291Z,95498.91
2022-12-16T03:21:09.294Z,95476.97
2022-12-16T03:24:10.661Z,95482.09
2022-12-16T03:28:05.901Z,95487.31
2022-12-16T03:31:17.708Z,95477.69
2022-12-16T03:34:36.492Z,95485.66
2022-12-16T03:37:37.181Z,95490.31
2022-12-16T03:40:35.917Z,95489.06
2022-12-16T03:43:33.429Z,95496.78
2022-12-16T03:46:32.034Z,95498.16
2022-12-16T03:49:28.981Z,95492.28
2022-12-16T03:52:25.813Z,95492.50
2022-12-16T03:55:22.736Z,95489.53
2022-12-16T03:58:20.578Z,95487.16
2022-12-16T04:01:17.468Z,95483.78
2022-12-16T04:04:14.340Z,95493.53
2022-12-16T04:07:26.123Z,95493.00
2022-12-16T04:10:42.917Z,95494.56
2022-12-16T04:13:58.377Z,95494.81
2022-12-16T04:17:14.127Z,95494.47
2022-12-16T04:20:36.539Z,95499.03
2022-12-16T04:23:54.305Z,95500.06
2022-12-16T04:27:15.362Z,95503.56
2022-12-16T04:30:20.513Z,95503.81
2022-12-16T04:33:36.633Z,95510.63
2022-12-16T04:36:51.911Z,95515.03
2022-12-16T04:40:07.367Z,95511.75
2022-12-16T04:43:22.569Z,95515.06
2022-12-16T04:46:38.222Z,95525.09
2022-12-16T04:49:53.712Z,95518.09
2022-12-16T04:53:12.818Z,95527.78
2022-12-16T04:56:28.605Z,95536.28
2022-12-16T04:59:43.837Z,95538.91
2022-12-16T05:02:58.988Z,95549.00
2022-12-16T05:06:14.193Z,95546.38
2022-12-16T05:09:29.879Z,95537.78
2022-12-16T05:12:45.326Z,95537.78
2022-12-16T05:16:00.595Z,95547.28
2022-12-16T05:19:16.062Z,95542.75
2022-12-16T05:22:31.467Z,95545.47
2022-12-16T05:25:47.719Z,95557.25
2022-12-16T05:29:03.113Z,95558.41
2022-12-16T05:32:19.047Z,95569.16
2022-12-16T05:35:34.449Z,95571.84
2022-12-16T05:38:49.669Z,95582.19
2022-12-16T05:42:05.539Z,95584.00
2022-12-16T05:45:20.752Z,95594.06
2022-12-16T05:48:35.873Z,95598.38
2022-12-16T05:51:51.256Z,95599.81
2022-12-16T05:55:06.465Z,95602.78
2022-12-16T05:58:22.185Z,95615.22
2022-12-16T06:01:37.502Z,95618.28
2022-12-16T06:04:53.130Z,95619.88
2022-12-16T06:08:12.885Z,95621.75
2022-12-16T06:11:28.243Z,95620.97
2022-12-16T06:14:43.535Z,95640.31
2022-12-16T06:18:06.522Z,95648.56
2022-12-16T06:21:22.296Z,95644.53
2022-12-16T06:24:38.050Z,95645.66
2022-12-16T06:27:53.281Z,95650.25
2022-12-16T06:31:09.411Z,95665.38
2022-12-16T06:34:25.009Z,95656.56
2022-12-16T06:37:40.177Z,95660.00
2022-12-16T06:40:56.015Z,95674.19
2022-12-16T06:44:11.904Z,95671.69
2022-12-16T06:47:27.776Z,95669.38
2022-12-16T06:50:45.136Z,95672.69
2022-12-16T06:54:03.296Z,95667.91
2022-12-16T06:57:18.613Z,95685.56
2022-12-16T07:00:34.571Z,95676.44
2022-12-16T07:03:50.292Z,95679.00
2022-12-16T07:07:06.200Z,95692.56
2022-12-16T07:10:22.830Z,95694.91
2022-12-16T07:13:38.755Z,95714.19
2022-12-16T07:16:54.124Z,95720.09
2022-12-16T07:20:09.681Z,95721.78
2022-12-16T07:23:25.130Z,95723.38
2022-12-16T07:26:40.357Z,95725.97
2022-12-16T07:29:55.632Z,95738.59
2022-12-16T07:33:10.835Z,95736.53
2022-12-16T07:36:31.219Z,95741.88
2022-12-16T07:39:50.074Z,95743.06
2022-12-16T07:43:10.049Z,95745.31
2022-12-16T07:46:25.959Z,95758.81
2022-12-16T07:49:41.571Z,95773.31
2022-12-16T07:52:56.799Z,95771.53
2022-12-16T07:56:12.216Z,95772.91
2022-12-16T07:59:27.251Z,95778.19
2022-12-16T08:02:42.541Z,95785.56
2022-12-16T08:05:58.385Z,95791.19
2022-12-16T08:09:14.174Z,95796.63
2022-12-16T08:12:29.596Z,95808.19
2022-12-16T08:15:45.092Z,95803.41
2022-12-16T08:19:00.181Z,95816.22
2022-12-16T08:22:15.648Z,95810.56
2022-12-16T08:25:31.008Z,95827.84
2022-12-16T08:28:49.899Z,95824.44
2022-12-16T08:32:05.037Z,95834.00
2022-12-16T08:35:21.130Z,95830.13
2022-12-16T08:38:36.387Z,95842.41
2022-12-16T08:41:51.603Z,95831.22
2022-12-16T08:45:08.445Z,95838.59
2022-12-16T08:48:24.989Z,95837.53
2022-12-16T08:51:40.697Z,95846.72
2022-12-16T08:54:56.181Z,95853.06
2022-12-16T08:58:13.504Z,95851.66
2022-12-16T09:01:29.143Z,95846.66
2022-12-16T09:04:44.849Z,95849.59
2022-12-16T09:08:00.449Z,95852.53
2022-12-16T09:11:20.095Z,95854.13
2022-12-16T09:14:35.282Z,95869.28
2022-12-16T09:17:50.366Z,95869.28
2022-12-16T09:21:06.581Z,95869.81
2022-12-16T09:24:21.969Z,95869.38
2022-12-16T09:27:37.250Z,95888.88
2022-12-16T09:30:52.395Z,95883.66
2022-12-16T09:34:08.311Z,95892.28
2022-12-16T09:37:23.952Z,95895.78
2022-12-16T09:40:39.407Z,95905.19
2022-12-16T09:44:30.175Z,95905.31
2022-12-16T09:48:05.494Z,95902.22
2022-12-16T09:51:24.383Z,95909.06
2022-12-16T09:54:45.711Z,95911.22
2022-12-16T09:58:02.575Z,95908.38
2022-12-16T10:01:19.304Z,95915.75
2022-12-16T10:04:35.588Z,95906.72
2022-12-16T10:07:56.491Z,95912.47
2022-12-16T10:11:27.651Z,95917.38
2022-12-16T10:14:54.489Z,95917.25
2022-12-16T10:18:11.379Z,95920.66
2022-12-16T10:21:36.901Z,95924.06
2022-12-16T10:25:34.061Z,95927.69
2022-12-16T10:29:06.231Z,95923.88
2022-12-16T10:32:58.935Z,95935.16
2022-12-16T10:36:15.245Z,95918.03
2022-12-16T10:39:55.052Z,95915.13
2022-12-16T10:43:24.427Z,95913.59
2022-12-16T10:46:46.614Z,95920.91
2022-12-16T10:50:01.780Z,95911.91
2022-12-16T10:53:45.913Z,95906.00
2022-12-16T10:57:26.939Z,95911.25
2022-12-16T11:01:05.679Z,95920.47
2022-12-16T11:04:52.490Z,95921.88
2022-12-16T11:08:12.785Z,95918.13
2022-12-16T11:11:53.127Z,95916.53
2022-12-16T11:18:47.242Z,95924.47
2022-12-16T11:22:03.412Z,95927.16
2022-12-16T11:25:39.832Z,95922.72
2022-12-16T11:28:55.206Z,95929.16
2022-12-16T11:32:35.877Z,95930.66
2022-12-16T11:35:55.082Z,95925.66
2022-12-16T11:39:12.426Z,95938.06
2022-12-16T11:42:38.869Z,95939.34
2022-12-16T11:45:54.312Z,95943.31
2022-12-16T11:49:24.951Z,95954.91
2022-12-16T11:52:42.081Z,95963.34
2022-12-16T11:56:06.950Z,95969.47
2022-12-16T11:59:59.163Z,95976.03
2022-12-16T12:03:33.243Z,95969.09
2022-12-16T12:07:24.323Z,95966.84
2022-12-16T12:11:22.888Z,95965.13
2022-12-16T12:15:11.502Z,95975.81
2022-12-16T12:18:59.692Z,95976.22
2022-12-16T12:22:20.246Z,95971.31
2022-12-16T12:26:17.457Z,95982.00
2022-12-16T12:30:34.483Z,95995.88
2022-12-16T12:34:23.985Z,96000.06
2022-12-16T12:38:04.878Z,96005.22
2022-12-16T12:41:47.220Z,96006.47
2022-12-16T12:45:32.231Z,96008.06
2022-12-16T12:49:30.032Z,96010.13
2022-12-16T12:53:22.611Z,96021.22
2022-12-16T12:57:04.476Z,96016.22
2022-12-16T13:00:34.027Z,96022.63
2022-12-16T13:04:05.128Z,96030.34
2022-12-16T13:07:21.001Z,96026.84
2022-12-16T13:10:39.070Z,96043.09
2022-12-16T13:13:55.694Z,96038.88
2022-12-16T13:17:20.322Z,96050.22
2022-12-16T13:20:50.815Z,96042.59
2022-12-16T13:24:07.205Z,96049.19
2022-12-16T13:27:22.503Z,96057.72
2022-12-16T13:30:42.679Z,96059.09
2022-12-16T13:33:58.095Z,96062.78
2022-12-16T13:37:22.840Z,96067.34
2022-12-16T13:40:42.925Z,96081.06
2022-12-16T13:44:15.186Z,96085.69
2022-12-16T13:47:59.334Z,96090.72
2022-12-16T13:51:18.796Z,96095.16
2022-12-16T13:54:34.771Z,96098.75
2022-12-16T13:58:01.169Z,96104.97
2022-12-16T14:01:25.248Z,96113.41
2022-12-16T14:05:01.597Z,96110.00
2022-12-16T14:12:32.784Z,96133.88
2022-12-16T14:16:04.285Z,96131.41
2022-12-16T14:19:49.679Z,96142.66
2022-12-16T14:23:56.281Z,96151.63
2022-12-16T14:27:14.101Z,96146.91
2022-12-16T14:30:44.361Z,96162.41
2022-12-16T14:33:59.473Z,96171.03
2022-12-16T14:37:17.164Z,96168.19
2022-12-16T14:40:48.889Z,96172.16
2022-12-16T14:44:04.744Z,96173.47
2022-12-16T14:47:20.484Z,96180.91
2022-12-16T14:50:48.639Z,96182.75
2022-12-16T14:54:11.854Z,96181.34
2022-12-16T14:57:31.795Z,96173.63
2022-12-16T15:00:47.513Z,96186.50
2022-12-16T15:04:07.991Z,96183.56
2022-12-16T15:07:31.941Z,96185.81
2022-12-16T15:10:47.871Z,96184.66
2022-12-16T15:14:04.237Z,96196.34
2022-12-16T15:17:20.474Z,96195.56
2022-12-16T15:20:43.882Z,96205.22
2022-12-16T15:24:03.258Z,96211.66
2022-12-16T15:27:37.100Z,96221.13
2022-12-16T15:30:58.889Z,96220.94
2022-12-16T15:34:44.195Z,96230.53
2022-12-16T15:38:04.460Z,96237.38
2022-12-16T15:41:22.917Z,96244.19
2022-12-16T15:44:43.336Z,96244.19
2022-12-16T15:47:58.551Z,96246.03
2022-12-16T15:51:13.859Z,96260.31
2022-12-16T15:54:40.174Z,96261.06
2022-12-16T15:57:57.315Z,96270.09
2022-12-16T16:01:17.224Z,96265.91
2022-12-16T16:04:48.127Z,96266.09
2022-12-16T16:08:04.982Z,96273.34
2022-12-16T16:11:21.446Z,96275.34
2022-12-16T16:14:36.577Z,96275.34
2022-12-16T16:17:51.758Z,96275.16
2022-12-16T16:21:08.799Z,96275.75
2022-12-16T16:24:24.187Z,96279.94
2022-12-16T16:27:39.887Z,96279.94
2022-12-16T16:30:55.317Z,96279.16
2022-12-16T16:34:10.811Z,96283.59
2022-12-16T16:37:39.178Z,96284.16
2022-12-16T16:41:07.917Z,96291.19
2022-12-16T16:44:33.630Z,96287.16
2022-12-16T16:47:50.466Z,96283.97
2022-12-16T16:51:05.750Z,96286.59
2022-12-16T16:54:20.890Z,96299.78
2022-12-16T16:57:36.052Z,96309.00
2022-12-16T17:00:51.535Z,96309.81
2022-12-16T17:04:07.119Z,96317.63
2022-12-16T17:07:22.821Z,96319.63
2022-12-16T17:10:38.731Z,96318.41
2022-12-16T17:13:53.926Z,96308.78
2022-12-16T17:17:09.217Z,96319.19
2022-12-16T17:20:25.904Z,96313.81
2022-12-16T17:23:41.382Z,96323.19
2022-12-16T17:27:04.472Z,96321.59
2022-12-16T17:30:20.682Z,96331.00
2022-12-16T17:33:36.401Z,96328.63
2022-12-16T17:36:52.212Z,96337.84
2022-12-16T17:40:07.360Z,96339.81
2022-12-16T17:43:23.726Z,96344.22
2022-12-16T17:46:38.783Z,96343.84
2022-12-16T17:49:54.356Z,96359.81
2022-12-16T17:53:17.669Z,96348.22
2022-12-16T17:56:32.850Z,96350.66
2022-12-16T17:59:51.806Z,96350.41
2022-12-16T18:03:10.051Z,96348.22
2022-12-16T18:06:26.134Z,96356.22
2022-12-16T18:09:41.605Z,96357.66
2022-12-16T18:12:56.876Z,96356.44
2022-12-16T18:16:12.595Z,96363.88
2022-12-16T18:19:31.155Z,96377.28
2022-12-16T18:22:46.495Z,96378.69
2022-12-16T18:26:01.598Z,96384.28
2022-12-16T18:29:17.366Z,96392.31
2022-12-16T18:32:35.326Z,96394.13
2022-12-16T18:35:50.960Z,96407.94
2022-12-16T18:39:13.758Z,96404.53
2022-12-16T18:42:31.439Z,96409.94
2022-12-16T18:45:46.617Z,96413.13
2022-12-16T18:49:02.242Z,96409.88
2022-12-16T18:52:17.677Z,96420.53
2022-12-16T18:55:33.561Z,96420.09
2022-12-16T18:58:51.678Z,96429.13
2022-12-16T19:02:07.598Z,96431.88
2022-12-16T19:05:23.371Z,96434.50
2022-12-16T19:08:39.080Z,96438.09
2022-12-16T19:11:54.697Z,96438.88
2022-12-16T19:15:10.280Z,96447.13
2022-12-16T19:18:25.728Z,96451.69
2022-12-16T19:21:41.158Z,96448.50
2022-12-16T19:24:56.950Z,96464.47
2022-12-16T19:28:12.365Z,96463.91
2022-12-16T19:31:32.521Z,96471.13
2022-12-16T19:34:47.853Z,96468.50
2022-12-16T19:38:03.122Z,96469.69
2022-12-16T19:41:18.294Z,96484.09
2022-12-16T19:44:33.642Z,96476.09
2022-12-16T19:47:49.304Z,96479.28
2022-12-16T19:51:04.418Z,96493.75
2022-12-16T19:54:20.254Z,96492.53
2022-12-16T19:57:35.395Z,96492.13
2022-12-16T20:00:51.170Z,96502.91
2022-12-16T20:04:09.891Z,96511.97
2022-12-16T20:07:25.197Z,96514.59
2022-12-16T20:10:40.412Z,96509.19
2022-12-16T20:13:56.214Z,96516.41
2022-12-16T20:17:11.648Z,96516.94
2022-12-16T20:20:27.492Z,96520.16
2022-12-16T20:23:42.679Z,96517.75
2022-12-16T20:26:58.371Z,96542.53
2022-12-16T20:30:13.455Z,96544.72
2022-12-16T20:33:35.465Z,96553.50
2022-12-16T20:36:50.612Z,96553.28
2022-12-16T20:40:07.070Z,96555.34
2022-12-16T20:43:23.149Z,96563.16
2022-12-16T20:46:38.407Z,96568.75
2022-12-16T20:49:57.246Z,96573.56
2022-12-16T20:53:13.230Z,96581.44
2022-12-16T20:56:28.942Z,96581.31
2022-12-16T20:59:44.163Z,96588.84
2022-12-16T21:02:59.387Z,96581.91
2022-12-16T21:06:14.785Z,96596.25
2022-12-16T21:09:30.452Z,96593.09
2022-12-16T21:12:46.436Z,96601.84
2022-12-16T21:16:01.722Z,96607.84
2022-12-16T21:19:17.616Z,96609.44
2022-12-16T21:22:32.909Z,96618.66
2022-12-16T21:25:48.022Z,96615.41
2022-12-16T21:29:03.321Z,96611.59
2022-12-16T21:32:18.528Z,96611.53
2022-12-16T21:35:34.143Z,96622.53
2022-12-16T21:38:49.338Z,96627.53
2022-12-16T21:42:04.994Z,96634.19
2022-12-16T21:45:20.763Z,96639.38
2022-12-16T21:48:36.207Z,96654.34
2022-12-16T21:51:51.711Z,96650.13
2022-12-16T21:55:14.844Z,96657.13
2022-12-16T21:58:30.959Z,96667.34
2022-12-16T22:01:46.934Z,96665.56
2022-12-16T22:05:01.977Z,96673.50
2022-12-16T22:08:17.475Z,96682.47
2022-12-16T22:11:33.761Z,96679.63
2022-12-16T22:14:48.900Z,96690.44
2022-12-16T22:18:04.013Z,96691.72
2022-12-16T22:21:22.519Z,96688.16
2022-12-16T22:24:38.137Z,96707.72
2022-12-16T22:27:53.384Z,96704.63
2022-12-16T22:31:15.994Z,96711.19
2022-12-16T22:34:31.642Z,96716.41
2022-12-16T22:37:47.420Z,96720.22
2022-12-16T22:41:03.150Z,96710.50
2022-12-16T22:44:18.354Z,96719.91
2022-12-16T22:47:34.202Z,96722.19
2022-12-16T22:50:50.879Z,96729.53
2022-12-16T22:54:07.631Z,96725.06
2022-12-16T22:57:23.079Z,96728.56
2022-12-16T23:00:38.792Z,96730.16
2022-12-16T23:03:56.467Z,96728.94
2022-12-16T23:07:11.833Z,96730.44
2022-12-16T23:10:28.182Z,96729.03
2022-12-16T23:13:45.933Z,96739.66
2022-12-16T23:17:01.003Z,96743.00
2022-12-16T23:20:16.818Z,96747.56
2022-12-16T23:23:31.923Z,96757.25
2022-12-16T23:26:47.039Z,96754.38
2022-12-16T23:30:02.779Z,96752.75
2022-12-16T23:33:20.736Z,96760.63
2022-12-16T23:36:36.180Z,96757.84
2022-12-16T23:39:51.425Z,96770.00
2022-12-16T23:43:07.445Z,96769.38
2022-12-16T23:46:23.047Z,96764.31
2022-12-16T23:49:38.180Z,96765.63
2022-12-16T23:52:53.839Z,96772.50
2022-12-16T23:56:18.268Z,96772.00
2022-12-16T23:59:33.358Z,96775.44
